createdAt,value
2023-01-02T00:04:18.050Z,100956.09
2023-01-02T00:11:49.805Z,100936.63
2023-01-02T00:19:22.105Z,100928.41
2023-01-02T00:26:53.885Z,100907.63
2023-01-02T00:34:26.137Z,100910.38
2023-01-02T00:41:57.958Z,100907.63
2023-01-02T00:49:29.704Z,100902.16
2023-01-02T00:57:01.504Z,100902.16
2023-01-02T01:04:34.748Z,100907.63
2023-01-02T01:12:06.666Z,100899.41
2023-01-02T01:19:38.475Z,100894.22
2023-01-02T01:27:10.295Z,100877.78
2023-01-02T01:34:42.211Z,100868.72
2023-01-02T01:42:14.220Z,100867.63
2023-01-02T01:49:46.046Z,100855.84
2023-01-02T01:57:25.293Z,100842.16
2023-01-02T02:04:57.178Z,100822.97
2023-01-02T02:12:29.547Z,100823.78
2023-01-02T02:20:25.375Z,100804.59
2023-01-02T02:28:21.531Z,100777.22
2023-01-02T02:36:04.243Z,100760.75
2023-01-02T02:43:50.879Z,100753.34
2023-01-02T02:51:42.817Z,100750.91
2023-01-02T02:59:14.541Z,100764.59
2023-01-02T03:07:08.935Z,100747.06
2023-01-02T03:14:59.716Z,100741.59
2023-01-02T03:22:33.409Z,100725.16
2023-01-02T03:30:14.995Z,100735.31
2023-01-02T03:37:49.991Z,100729.00
2023-01-02T03:45:26.078Z,100714.19
2023-01-02T03:52:57.988Z,100711.44
2023-01-02T04:00:36.712Z,100702.13
2023-01-02T04:08:24.375Z,100700.50
2023-01-02T04:15:56.209Z,100699.41
2023-01-02T04:23:41.076Z,100693.06
2023-01-02T04:31:21.005Z,100699.41
2023-01-02T04:38:52.754Z,100683.75
2023-01-02T04:46:26.431Z,100688.13
2023-01-02T04:53:58.220Z,100682.66
2023-01-02T05:01:30.106Z,100682.94
2023-01-02T05:09:01.924Z,100687.31
2023-01-02T05:16:33.700Z,100690.03
2023-01-02T05:24:06.106Z,100693.91
2023-01-02T05:31:37.874Z,100688.44
2023-01-02T05:39:13.645Z,100674.13
2023-01-02T05:46:45.529Z,100658.81
2023-01-02T05:54:17.338Z,100672.22
2023-01-02T06:01:49.147Z,100663.19
2023-01-02T06:09:21.014Z,100665.91
2023-01-02T06:16:52.753Z,100668.66
2023-01-02T06:24:24.475Z,100667.31
2023-01-02T06:31:56.203Z,100666.22
2023-01-02T06:39:28.010Z,100662.66
2023-01-02T06:46:59.737Z,100672.78
2023-01-02T06:54:32.592Z,100668.97
2023-01-02T07:02:04.420Z,100683.47
2023-01-02T07:09:36.335Z,100685.41
2023-01-02T07:17:08.117Z,100693.31
2023-01-02T07:24:39.864Z,100704.28
2023-01-02T07:32:11.708Z,100696.06
2023-01-02T07:39:45.190Z,100711.41
2023-01-02T07:47:16.892Z,100709.75
2023-01-02T07:54:48.666Z,100709.22
2023-01-02T08:02:20.470Z,100731.69
2023-01-02T08:09:52.306Z,100727.28
2023-01-02T08:17:24.030Z,100723.75
2023-01-02T08:24:55.775Z,100730.03
2023-01-02T08:32:27.525Z,100734.41
2023-01-02T08:39:59.368Z,100720.72
2023-01-02T08:47:31.081Z,100716.34
2023-01-02T08:55:05.521Z,100731.69
2023-01-02T09:02:37.579Z,100744.28
2023-01-02T09:10:10.591Z,100734.13
2023-01-02T09:17:42.392Z,100750.28
2023-01-02T09:25:16.494Z,100741.25
2023-01-02T09:32:52.819Z,100748.38
2023-01-02T09:40:24.645Z,100751.09
2023-01-02T09:47:56.470Z,100737.66
2023-01-02T09:55:55.026Z,100714.66
2023-01-02T10:03:38.976Z,100702.06
2023-01-02T10:11:32.396Z,100708.06
2023-01-02T10:19:09.944Z,100694.38
2023-01-02T10:26:45.396Z,100672.44
2023-01-02T10:34:19.070Z,100668.06
2023-01-02T10:41:53.754Z,100674.66
2023-01-02T10:49:25.832Z,100676.28
2023-01-02T10:56:57.726Z,100676.28
2023-01-02T11:04:30.054Z,100675.47
2023-01-02T11:12:09.093Z,100678.72
2023-01-02T11:19:46.499Z,100664.53
2023-01-02T11:27:18.239Z,100666.97
2023-01-02T11:34:59.375Z,100652.16
2023-01-02T11:42:51.959Z,100662.00
2023-01-02T11:50:26.379Z,100671.06
2023-01-02T11:58:43.912Z,100671.84
2023-01-02T12:06:21.767Z,100683.91
2023-01-02T12:14:18.624Z,100669.13
2023-01-02T12:22:05.095Z,100676.53
2023-01-02T12:30:07.794Z,100678.97
2023-01-02T12:37:57.708Z,100682.00
2023-01-02T12:46:27.293Z,100676.53
2023-01-02T12:54:24.428Z,100696.81
2023-01-02T13:02:09.172Z,100699.56
2023-01-02T13:09:42.942Z,100679.56
2023-01-02T13:17:39.584Z,100692.97
2023-01-02T13:25:17.264Z,100692.13
2023-01-02T13:32:50.299Z,100700.66
2023-01-02T13:40:31.187Z,100700.34
2023-01-02T13:48:13.420Z,100714.06
2023-01-02T13:56:15.404Z,100728.78
2023-01-02T14:04:15.712Z,100724.81
2023-01-02T14:11:56.335Z,100722.84
2023-01-02T14:19:29.365Z,100724.69
2023-01-02T14:27:24.078Z,100741.41
2023-01-02T14:34:56.871Z,100748.19
2023-01-02T14:42:50.457Z,100750.66
2023-01-02T14:50:25.167Z,100762.94
2023-01-02T14:57:56.909Z,100759.09
2023-01-02T15:05:53.042Z,100765.13
2023-01-02T15:13:27.914Z,100771.72
2023-01-02T15:29:13.641Z,100813.34
2023-01-02T15:36:45.501Z,100856.66
2023-01-02T15:44:45.356Z,100856.66
2023-01-02T15:52:25.736Z,100888.44
2023-01-02T15:59:57.584Z,100894.47
2023-01-02T16:07:29.382Z,100895.28
2023-01-02T16:15:01.141Z,100907.88
2023-01-02T16:22:40.705Z,100923.25
2023-01-02T16:30:42.500Z,100925.69
2023-01-02T16:38:24.064Z,100933.91
2023-01-02T16:45:55.855Z,100957.81
2023-01-02T16:53:30.046Z,100969.56
2023-01-02T17:01:01.918Z,100982.47
2023-01-02T17:08:34.492Z,100984.94
2023-01-02T17:16:06.985Z,101000.28
2023-01-02T17:23:38.795Z,101001.38
2023-01-02T17:31:14.380Z,101008.53
2023-01-02T17:38:46.215Z,101014.81
2023-01-02T17:46:58.076Z,101030.97
2023-01-02T17:54:09.703Z,101019.50
2023-01-02T18:01:41.528Z,101037.88
2023-01-02T18:09:13.458Z,101049.16
2023-01-02T18:16:46.092Z,101069.75
2023-01-02T18:24:29.971Z,101069.50
2023-01-02T18:32:01.945Z,101056.91
2023-01-02T18:39:42.342Z,101079.41
2023-01-02T18:47:31.972Z,101099.72
2023-01-02T18:55:22.276Z,101114.50
2023-01-02T19:03:02.598Z,101111.25
2023-01-02T19:10:38.897Z,101107.97
2023-01-02T19:18:22.359Z,101125.50
2023-01-02T19:25:54.263Z,101152.13
2023-01-02T19:33:56.957Z,101152.13
2023-01-02T19:41:46.963Z,101167.22
2023-01-02T19:49:18.696Z,101190.00
2023-01-02T19:56:50.419Z,101192.97
2023-01-02T20:04:22.160Z,101192.97
2023-01-02T20:12:12.514Z,101198.47
2023-01-02T20:19:44.414Z,101212.47
2023-01-02T20:27:16.268Z,101194.66
2023-01-02T20:34:48.092Z,101196.31
2023-01-02T20:42:20.718Z,101208.09
2023-01-02T20:49:52.456Z,101235.25
2023-01-02T20:57:24.337Z,101262.66
2023-01-02T21:04:56.139Z,101279.91
2023-01-02T21:12:46.268Z,101304.88
2023-01-02T21:20:17.998Z,101316.66
2023-01-02T21:27:49.767Z,101316.94
2023-01-02T21:35:21.525Z,101335.84
2023-01-02T21:42:53.883Z,101350.94
2023-01-02T21:50:25.638Z,101356.41
2023-01-02T21:58:12.851Z,101368.78
2023-01-02T22:05:45.708Z,101372.63
2023-01-02T22:13:17.466Z,101379.19
2023-01-02T22:20:49.228Z,101384.97
2023-01-02T22:28:20.998Z,101388.00
2023-01-02T22:35:52.843Z,101410.44
2023-01-02T22:43:24.982Z,101402.78
2023-01-02T22:50:58.896Z,101409.06
2023-01-02T22:58:30.673Z,101425.53
2023-01-02T23:06:02.484Z,101429.09
2023-01-02T23:13:34.944Z,101445.56
2023-01-02T23:21:10.736Z,101440.34
2023-01-02T23:29:09.465Z,101440.34
2023-01-02T23:36:34.229Z,101455.97
2023-01-02T23:44:06.122Z,101469.13
2023-01-02T23:51:38.389Z,101479.81
2023-01-02T23:59:12.767Z,101480.09
